Sea Carrier — 9V7734 — position and weather

sailwx.info

Track history (hours):
 
Tides and Currents Weather Stations Pressure Air Temp Water Temp Dewpoint Dewpoint Depression Visibility Wind Speed Wind Dir Waves Ship Positions

Sea Carrier

Last reported at 2017-Dec-11 17:00 UTC. Time now 2017-Dec-13 22:46 UTC.
Position N 39°04' W 009°51'.

Length 107 m; draft 8.2 m.

Type: Cargo ship. MMSI: 566837000.

Date/timePositionNaut miles runAvg speedWind from/ knotsBaromVisibWave heightAir tempDewpointWater temp
2017-Dec-11 17:00N 39°04' W 009°51'3 6.4
2017-Dec-11 16:30N 39°01' W 009°51'3 6.3
2017-Dec-11 16:00N 38°58' W 009°52'3 6.4
2017-Dec-11 15:30N 38°55' W 009°52'3 6.2
2017-Dec-11 15:00N 38°52' W 009°51'3 6.6
2017-Dec-11 14:30N 38°49' W 009°50'3 6.9
2017-Dec-11 14:00N 38°45' W 009°50'4 7.0
2017-Dec-11 13:30N 38°42' W 009°50'3 7.0
2017-Dec-11 13:00N 38°38' W 009°50'3 7.0
2017-Dec-11 12:30N 38°35' W 009°49'4 7.5
2017-Dec-11 12:00N 38°31' W 009°48'4 7.4
2017-Dec-11 11:30N 38°27' W 009°47'4 7.4
2017-Dec-11 11:00N 38°24' W 009°47'4 7.1
2017-Dec-11 10:30N 38°20' W 009°45'3 6.8
2017-Dec-11 10:00N 38°17' W 009°44'6 7.0
2017-Dec-11 09:10N 38°12' W 009°42'3 6.7
2017-Dec-11 08:46N 38°09' W 009°41'6 6.3
2017-Dec-11 07:54N 38°04' W 009°39'4 6.5
2017-Dec-11 07:17N 37°60' W 009°37'2 6.5
2017-Dec-11 06:59N 37°58' W 009°37'3 6.7
2017-Dec-11 06:30N 37°55' W 009°35'3 7.0
2017-Dec-11 06:00N 37°52' W 009°35'3 6.6
2017-Dec-11 05:30N 37°48' W 009°34'3 6.5
2017-Dec-11 05:00N 37°45' W 009°32'3 6.3
2017-Dec-11 04:30N 37°42' W 009°31'3 6.0
2017-Dec-11 04:00N 37°39' W 009°30'77 7.9
2017-Dec-10 18:18N 36°37' W 008°35'310.5
2017-Dec-10 17:59N 36°36' W 008°31'  
Track history (hours):
 
Tides and Currents Weather Stations Pressure Air Temp Water Temp Dewpoint Dewpoint Depression Visibility Wind Speed Wind Dir Waves Ship Positions

Sea Carrier

Last reported at 2017-Dec-11 17:00 UTC. Time now 2017-Dec-13 22:46 UTC.
Position N 39°04' W 009°51'.

Length 107 m; draft 8.2 m.

Type: Cargo ship. MMSI: 566837000.

Date/timePositionNaut miles runAvg speedWind from/ knotsBaromVisibWave heightAir tempDewpointWater temp
2017-Dec-11 17:00N 39°04' W 009°51'3 6.4
2017-Dec-11 16:30N 39°01' W 009°51'3 6.3
2017-Dec-11 16:00N 38°58' W 009°52'3 6.4
2017-Dec-11 15:30N 38°55' W 009°52'3 6.2
2017-Dec-11 15:00N 38°52' W 009°51'3 6.6
2017-Dec-11 14:30N 38°49' W 009°50'3 6.9
2017-Dec-11 14:00N 38°45' W 009°50'4 7.0
2017-Dec-11 13:30N 38°42' W 009°50'3 7.0
2017-Dec-11 13:00N 38°38' W 009°50'3 7.0
2017-Dec-11 12:30N 38°35' W 009°49'4 7.5
2017-Dec-11 12:00N 38°31' W 009°48'4 7.4
2017-Dec-11 11:30N 38°27' W 009°47'4 7.4
2017-Dec-11 11:00N 38°24' W 009°47'4 7.1
2017-Dec-11 10:30N 38°20' W 009°45'3 6.8
2017-Dec-11 10:00N 38°17' W 009°44'6 7.0
2017-Dec-11 09:10N 38°12' W 009°42'3 6.7
2017-Dec-11 08:46N 38°09' W 009°41'6 6.3
2017-Dec-11 07:54N 38°04' W 009°39'4 6.5
2017-Dec-11 07:17N 37°60' W 009°37'2 6.5
2017-Dec-11 06:59N 37°58' W 009°37'3 6.7
2017-Dec-11 06:30N 37°55' W 009°35'3 7.0
2017-Dec-11 06:00N 37°52' W 009°35'3 6.6
2017-Dec-11 05:30N 37°48' W 009°34'3 6.5
2017-Dec-11 05:00N 37°45' W 009°32'3 6.3
2017-Dec-11 04:30N 37°42' W 009°31'3 6.0
2017-Dec-11 04:00N 37°39' W 009°30'77 7.9
2017-Dec-10 18:18N 36°37' W 008°35'310.5
2017-Dec-10 17:59N 36°36' W 008°31'  

Dump ship's entire track history